Time;durP1;ratioP1;P1;durP2;ratioP2;P2;SDS_P1;SDS_P2;PMS_P1;PMS_P2;Temp;Humidity;BMP_temperature;BMP_pressure;BME280_temperature;BME280_humidity;BME280_pressure;Samples;Min_cycle;Max_cycle;Signal;HPM_P1;HPM_P2
2021/08/03 00:02:13;;;;;;;12.38;4.43;;;;;;;22.68;100.00;94650.78;10597649;27;20021;-74
2021/08/03 00:07:20;;;;;;;10.90;4.43;;;;;;;22.57;100.00;94641.50;10616329;27;20063;-74
2021/08/03 00:12:21;;;;;;;19.25;4.57;;;;;;;22.60;100.00;94645.50;10615930;27;20031;-74
2021/08/03 00:17:24;;;;;;;13.32;4.65;;;;;;;22.44;100.00;94640.81;10615195;27;20490;-73
2021/08/03 00:22:24;;;;;;;9.35;3.97;;;;;;;22.28;100.00;94646.22;10615666;27;20390;-73
2021/08/03 00:27:25;;;;;;;10.38;4.85;;;;;;;22.16;100.00;94649.03;10578787;27;20046;-74
2021/08/03 00:32:29;;;;;;;7.60;4.43;;;;;;;22.12;100.00;94651.66;10554193;28;20019;-74
2021/08/03 00:37:29;;;;;;;11.88;5.68;;;;;;;22.14;100.00;94649.34;10554158;28;20768;-74
2021/08/03 00:42:30;;;;;;;10.30;3.90;;;;;;;22.05;100.00;94650.66;10571930;28;20052;-74
2021/08/03 00:47:31;;;;;;;16.83;4.47;;;;;;;21.98;100.00;94648.53;10572388;28;20035;-74
2021/08/03 00:52:31;;;;;;;8.10;3.47;;;;;;;21.94;100.00;94637.47;10572294;28;20042;-74
2021/08/03 00:57:32;;;;;;;6.25;3.80;;;;;;;21.91;100.00;94640.09;10571915;28;20027;-74
2021/08/03 01:02:32;;;;;;;9.55;3.70;;;;;;;21.87;100.00;94652.91;10571826;28;20057;-74
2021/08/03 01:07:42;;;;;;;9.63;3.75;;;;;;;21.96;100.00;94656.28;10571716;28;20024;-74
2021/08/03 01:12:48;;;;;;;9.10;3.85;;;;;;;21.80;100.00;94658.97;10571442;28;20035;-75
2021/08/03 01:18:15;;;;;;;6.25;4.32;;;;;;;21.84;100.00;94646.19;10571712;28;20031;-75
2021/08/03 01:23:42;;;;;;;11.73;3.53;;;;;;;21.79;100.00;94671.03;10570838;28;20060;-74
2021/08/03 01:28:47;;;;;;;12.50;4.22;;;;;;;21.84;100.00;94676.28;10571406;28;20092;-74
2021/08/03 01:33:50;;;;;;;8.75;4.07;;;;;;;21.77;100.00;94673.31;10570838;28;20039;-74
2021/08/03 01:38:52;;;;;;;8.77;3.58;;;;;;;21.80;100.00;94669.91;10570675;28;20024;-74
2021/08/03 01:43:54;;;;;;;7.82;3.95;;;;;;;21.71;100.00;94672.75;10552329;28;20158;-75
2021/08/03 01:48:59;;;;;;;10.27;3.78;;;;;;;21.72;100.00;94670.84;10578029;28;20043;-75
2021/08/03 01:54:01;;;;;;;9.43;5.00;;;;;;;21.62;100.00;94672.13;10579163;28;20055;-74
2021/08/03 01:59:02;;;;;;;10.40;4.18;;;;;;;21.64;100.00;94669.81;10561244;28;20020;-74
2021/08/03 02:04:03;;;;;;;8.02;4.82;;;;;;;21.64;100.00;94659.69;10560309;28;20494;-74
2021/08/03 02:09:07;;;;;;;10.48;4.22;;;;;;;21.54;100.00;94648.44;10560519;28;20035;-74
2021/08/03 02:14:07;;;;;;;13.70;4.25;;;;;;;21.61;100.00;94649.44;10578586;28;20049;-75
2021/08/03 02:19:08;;;;;;;9.55;3.75;;;;;;;21.63;100.00;94658.09;10577856;28;20030;-75
2021/08/03 02:24:09;;;;;;;7.43;3.70;;;;;;;21.65;100.00;94658.53;10559895;28;20130;-74
2021/08/03 02:29:10;;;;;;;9.30;3.90;;;;;;;21.58;100.00;94668.47;10577925;28;20426;-74
2021/08/03 02:34:36;;;;;;;5.25;3.58;;;;;;;21.72;100.00;94676.31;10577421;28;20478;-74
2021/08/03 02:39:37;;;;;;;10.07;3.90;;;;;;;21.67;100.00;94689.09;10576953;28;20504;-75
2021/08/03 02:44:41;;;;;;;7.55;3.72;;;;;;;21.73;100.00;94699.81;10577360;28;20046;-74
2021/08/03 02:49:52;;;;;;;8.50;4.50;;;;;;;21.70;100.00;94717.69;10576871;28;20023;-74
2021/08/03 02:55:01;;;;;;;9.05;3.22;;;;;;;21.75;100.00;94716.66;10577079;28;20714;-75
2021/08/03 03:00:03;;;;;;;12.52;4.80;;;;;;;21.75;100.00;94706.50;10575998;28;20019;-74
2021/08/03 03:05:26;;;;;;;10.70;3.97;;;;;;;21.74;100.00;94709.56;10576207;28;20027;-74
2021/08/03 03:10:29;;;;;;;11.63;4.20;;;;;;;21.64;100.00;94708.13;10576276;28;20023;-74
2021/08/03 03:15:31;;;;;;;11.02;4.50;;;;;;;21.56;100.00;94711.78;10575561;28;20478;-75
2021/08/03 03:20:33;;;;;;;8.07;4.55;;;;;;;21.52;100.00;94714.41;10575666;28;20027;-74
2021/08/03 03:25:34;;;;;;;13.85;5.13;;;;;;;21.56;100.00;94722.72;10575665;28;20047;-75
2021/08/03 03:30:35;;;;;;;7.82;4.32;;;;;;;21.49;100.00;94737.72;10575768;28;20036;-74
2021/08/03 03:35:37;;;;;;;12.18;4.85;;;;;;;21.57;100.00;94736.03;10574846;28;20024;-74
2021/08/03 03:40:39;;;;;;;9.55;4.40;;;;;;;21.54;100.00;94733.22;10575360;28;20821;-74
2021/08/03 03:45:44;;;;;;;10.00;4.57;;;;;;;21.55;100.00;94740.28;10575156;28;20035;-74
2021/08/03 03:50:59;;;;;;;10.35;4.70;;;;;;;21.56;100.00;94759.06;10574608;28;20032;-74
2021/08/03 03:56:02;;;;;;;6.63;4.03;;;;;;;21.62;100.00;94762.38;10555074;28;20040;-75
2021/08/03 04:01:03;;;;;;;10.15;4.72;;;;;;;21.72;100.00;94769.31;10531855;28;20036;-74
2021/08/03 04:06:07;;;;;;;12.75;5.60;;;;;;;21.74;100.00;94770.56;10511851;28;20478;-74
2021/08/03 04:11:13;;;;;;;21.48;6.03;;;;;;;21.68;100.00;94778.22;10529319;28;20020;-74
2021/08/03 04:16:14;;;;;;;15.25;5.45;;;;;;;21.73;100.00;94790.06;10530663;28;20103;-74
2021/08/03 04:21:15;;;;;;;19.15;5.95;;;;;;;21.68;100.00;94794.63;10512104;28;20094;-74
2021/08/03 04:26:16;;;;;;;9.93;6.50;;;;;;;21.68;100.00;94789.16;10556519;28;20533;-78
2021/08/03 04:31:16;;;;;;;12.87;5.93;;;;;;;21.58;100.00;94783.34;10572470;28;20020;-74
2021/08/03 04:36:16;;;;;;;20.20;6.03;;;;;;;21.57;100.00;94789.94;10571730;28;20164;-74
2021/08/03 04:41:17;;;;;;;16.83;5.60;;;;;;;21.33;100.00;94791.50;10572663;28;20027;-74
2021/08/03 04:46:17;;;;;;;13.63;6.47;;;;;;;21.39;100.00;94794.81;10571932;28;20031;-74
2021/08/03 04:51:17;;;;;;;11.73;6.00;;;;;;;21.54;100.00;94790.63;10571802;28;20146;-74
2021/08/03 04:56:18;;;;;;;14.63;5.80;;;;;;;21.81;100.00;94792.66;10572023;28;20409;-74
2021/08/03 05:01:18;;;;;;;11.90;5.13;;;;;;;22.10;100.00;94790.78;10571439;28;20023;-74
2021/08/03 05:06:19;;;;;;;16.27;5.10;;;;;;;22.46;100.00;94789.13;10571719;28;20042;-74
2021/08/03 05:11:19;;;;;;;11.70;5.33;;;;;;;23.04;100.00;94787.94;10571269;28;20032;-74
2021/08/03 05:16:19;;;;;;;13.43;5.90;;;;;;;23.33;100.00;94789.50;10571303;28;20031;-74
2021/08/03 05:21:20;;;;;;;14.90;5.15;;;;;;;23.87;100.00;94795.47;10571415;28;20277;-74
2021/08/03 05:26:20;;;;;;;23.97;4.63;;;;;;;24.39;100.00;94798.97;10570465;28;20051;-74
2021/08/03 05:31:21;;;;;;;16.55;5.03;;;;;;;25.13;100.00;94806.34;10570668;28;20293;-74
2021/08/03 05:36:21;;;;;;;10.53;4.43;;;;;;;25.87;100.00;94805.25;10552969;28;20064;-74
2021/08/03 05:41:22;;;;;;;16.92;4.30;;;;;;;26.55;99.88;94808.19;10571125;28;20036;-74
2021/08/03 05:46:22;;;;;;;22.00;5.00;;;;;;;27.56;92.43;94794.72;10570466;28;20191;-74
2021/08/03 05:51:23;;;;;;;13.63;4.27;;;;;;;28.13;81.78;94805.41;10570387;28;20115;-74
2021/08/03 05:56:23;;;;;;;13.25;3.28;;;;;;;28.98;73.29;94798.75;10570632;28;20031;-72
2021/08/03 06:01:23;;;;;;;10.32;3.67;;;;;;;29.78;66.27;94807.22;10570113;28;20076;-72
2021/08/03 06:06:28;;;;;;;9.17;3.10;;;;;;;30.27;61.50;94804.81;10570188;28;20024;-72
2021/08/03 06:11:29;;;;;;;13.30;3.58;;;;;;;30.78;60.55;94803.47;10570039;28;20285;-72
2021/08/03 06:16:30;;;;;;;8.27;3.17;;;;;;;31.04;57.26;94812.50;10570486;28;20031;-74
2021/08/03 06:21:31;;;;;;;11.23;2.88;;;;;;;31.89;53.57;94809.59;10570771;28;20027;-74
2021/08/03 06:26:32;;;;;;;17.58;3.97;;;;;;;32.57;49.29;94812.94;10570166;28;20083;-74
2021/08/03 06:31:33;;;;;;;11.45;3.92;;;;;;;32.76;48.25;94812.34;10571167;28;20139;-72
2021/08/03 06:36:33;;;;;;;12.77;4.18;;;;;;;33.04;46.82;94805.66;10577514;28;20049;-73
2021/08/03 06:41:39;;;;;;;7.80;3.53;;;;;;;33.79;45.49;94805.03;10577760;28;20027;-73
2021/08/03 06:46:43;;;;;;;;;;;;;;;34.09;42.97;94811.69;10577343;28;20035;-73
2021/08/03 06:51:44;;;;;;;8.10;3.55;;;;;;;34.68;41.89;94813.84;10576971;28;19915;-74
2021/08/03 06:56:50;;;;;;;10.93;3.60;;;;;;;34.33;41.85;94818.06;10578689;28;20554;-74
2021/08/03 07:01:50;;;;;;;7.38;2.95;;;;;;;35.05;39.63;94816.72;10576891;28;20027;-74
2021/08/03 07:06:58;;;;;;;9.27;4.05;;;;;;;35.59;39.37;94819.13;10576132;28;20031;-74
2021/08/03 07:11:59;;;;;;;8.73;3.80;;;;;;;36.43;38.13;94813.13;10576003;28;20035;-74
2021/08/03 07:17:00;;;;;;;5.33;3.60;;;;;;;37.12;36.05;94816.88;10575840;28;20475;-73
2021/08/03 07:22:00;;;;;;;21.17;4.80;;;;;;;36.90;37.26;94813.91;10575233;28;20546;-74
2021/08/03 07:27:01;;;;;;;24.40;5.45;;;;;;;37.61;35.45;94810.22;10575111;28;20051;-74
2021/08/03 07:32:02;;;;;;;13.20;5.53;;;;;;;37.90;34.50;94817.72;10575182;28;20057;-74
2021/08/03 07:37:03;;;;;;;12.88;4.38;;;;;;;37.61;35.23;94816.59;10574961;28;20027;-74
2021/08/03 07:42:05;;;;;;;7.95;3.78;;;;;;;38.57;33.28;94815.91;10574670;28;20028;-74
2021/08/03 07:47:06;;;;;;;9.02;3.88;;;;;;;39.11;32.49;94814.00;10573897;28;20475;-74
2021/08/03 07:52:07;;;;;;;7.00;4.53;;;;;;;39.28;32.20;94806.97;10574205;28;20084;-74
2021/08/03 07:57:07;;;;;;;9.20;4.18;;;;;;;39.97;31.10;94799.44;10574394;28;20270;-74
2021/08/03 08:02:08;;;;;;;9.17;4.30;;;;;;;40.56;30.10;94787.34;10574190;28;20031;-74
2021/08/03 08:07:08;;;;;;;9.20;4.68;;;;;;;41.39;28.35;94785.72;10573858;28;20447;-74
2021/08/03 08:12:08;;;;;;;10.70;5.00;;;;;;;41.96;28.37;94776.53;10555479;28;20031;-74
2021/08/03 08:17:09;;;;;;;11.43;5.13;;;;;;;42.23;27.25;94772.78;10573218;28;20077;-74
2021/08/03 08:22:09;;;;;;;7.83;4.53;;;;;;;42.03;27.49;94779.00;10573250;28;20019;-74
2021/08/03 08:27:09;;;;;;;10.73;4.23;;;;;;;42.33;26.93;94779.16;10573047;28;20098;-74
2021/08/03 08:32:10;;;;;;;12.37;4.67;;;;;;;41.36;27.42;94784.63;10573155;28;20534;-74
2021/08/03 08:37:11;;;;;;;11.18;4.45;;;;;;;42.05;26.09;94781.34;10572704;28;20718;-74
2021/08/03 08:42:11;;;;;;;7.00;4.03;;;;;;;42.58;25.85;94783.50;10572496;28;20409;-74
2021/08/03 08:47:12;;;;;;;10.38;4.15;;;;;;;42.83;24.93;94779.41;10572894;28;20747;-74
2021/08/03 08:52:16;;;;;;;9.20;3.63;;;;;;;42.94;24.24;94772.38;10571995;28;20028;-74
2021/08/03 08:57:16;;;;;;;11.20;4.20;;;;;;;40.89;25.38;94775.44;10572045;28;20030;-74
2021/08/03 09:02:17;;;;;;;5.67;3.37;;;;;;;41.89;24.88;94765.59;10571823;28;20487;-74
2021/08/03 09:07:18;;;;;;;9.20;4.25;;;;;;;42.24;24.76;94776.38;10571419;28;20054;-74
2021/08/03 09:12:34;;;;;;;8.18;3.92;;;;;;;42.19;23.41;94775.75;10571461;28;20032;-74
2021/08/03 09:17:34;;;;;;;6.35;3.40;;;;;;;42.75;22.86;94774.63;10571745;28;20028;-74
2021/08/03 09:22:35;;;;;;;9.03;3.30;;;;;;;43.13;23.16;94768.13;10571574;28;20027;-74
2021/08/03 09:27:43;;;;;;;8.90;4.17;;;;;;;43.44;22.94;94760.38;10570843;28;20077;-74
2021/08/03 09:32:45;;;;;;;8.85;3.80;;;;;;;43.83;21.59;94748.91;10573979;28;20597;-74
2021/08/03 09:37:46;;;;;;;7.07;3.42;;;;;;;43.91;21.07;94744.41;10571281;28;20422;-74
2021/08/03 09:43:11;;;;;;;6.55;2.65;;;;;;;44.77;19.29;94738.56;10571221;28;20106;-74
2021/08/03 09:48:14;;;;;;;8.77;3.10;;;;;;;44.72;18.87;94736.44;10571085;28;20035;-74
2021/08/03 09:53:38;;;;;;;6.63;3.40;;;;;;;44.48;19.81;94726.09;10552330;28;20563;-74
2021/08/03 09:58:49;;;;;;;5.07;2.97;;;;;;;45.60;19.99;94727.69;10579894;28;20040;-74
2021/08/03 10:03:53;;;;;;;8.00;3.15;;;;;;;45.34;19.53;94728.50;10570798;28;20124;-74
2021/08/03 10:08:55;;;;;;;5.30;2.75;;;;;;;45.87;16.95;94720.66;10575679;28;20027;-74
2021/08/03 10:13:56;;;;;;;6.32;2.50;;;;;;;45.88;18.19;94724.25;10579040;28;20161;-74
2021/08/03 10:18:58;;;;;;;7.95;3.00;;;;;;;45.51;17.65;94719.34;10578145;28;20379;-74
2021/08/03 10:24:28;;;;;;;7.53;2.97;;;;;;;46.58;17.41;94707.78;10577980;28;20058;-74
2021/08/03 10:29:30;;;;;;;5.70;3.05;;;;;;;44.85;17.93;94699.97;10572200;28;20588;-74
2021/08/03 10:34:42;;;;;;;5.65;3.45;;;;;;;45.22;18.89;94701.34;10577713;28;20020;-74
2021/08/03 10:39:52;;;;;;;4.88;2.97;;;;;;;45.24;18.89;94698.75;10577699;28;20027;-74
2021/08/03 10:44:58;;;;;;;6.50;3.35;;;;;;;43.74;19.37;94692.44;10577125;28;20110;-74
2021/08/03 10:50:01;;;;;;;6.10;3.30;;;;;;;44.21;19.55;94693.28;10577067;28;20046;-74
2021/08/03 10:55:02;;;;;;;4.13;2.80;;;;;;;45.11;18.38;94689.91;10576621;28;20129;-74
2021/08/03 11:00:04;;;;;;;4.93;2.70;;;;;;;45.94;17.62;94690.97;10576369;28;20042;-74
2021/08/03 11:05:04;;;;;;;6.50;2.60;;;;;;;45.76;17.79;94680.03;10558105;28;20027;-74
2021/08/03 11:10:14;;;;;;;6.80;2.50;;;;;;;46.69;16.00;94679.38;10576458;28;20495;-74
2021/08/03 11:15:23;;;;;;;5.00;2.58;;;;;;;46.37;16.77;94676.72;10576356;28;20023;-74
2021/08/03 11:20:41;;;;;;;6.05;3.15;;;;;;;41.80;19.97;94684.59;10575712;28;20081;-74
2021/08/03 11:25:47;;;;;;;10.27;3.45;;;;;;;38.12;22.84;94675.50;10575712;28;20415;-74
2021/08/03 11:30:50;;;;;;;6.23;3.47;;;;;;;36.32;25.47;94681.09;10575465;28;20027;-74
2021/08/03 11:35:50;;;;;;;7.95;3.78;;;;;;;35.64;26.14;94674.47;10575399;28;20034;-73
2021/08/03 11:40:57;;;;;;;7.43;3.90;;;;;;;35.71;26.79;94680.66;10574693;28;20489;-73
2021/08/03 11:45:57;;;;;;;11.23;3.88;;;;;;;35.41;26.42;94681.81;10556236;28;20031;-74
2021/08/03 11:50:57;;;;;;;6.27;4.10;;;;;;;35.12;26.76;94667.72;10574617;28;20027;-74
2021/08/03 11:55:58;;;;;;;6.50;3.97;;;;;;;35.17;26.62;94681.97;10574416;28;20042;-74
2021/08/03 12:01:00;;;;;;;9.52;4.03;;;;;;;35.03;27.37;94665.53;10574150;28;20029;-74
2021/08/03 12:06:03;;;;;;;14.07;4.18;;;;;;;34.50;27.07;94673.84;10555732;28;20027;-74
2021/08/03 12:11:04;;;;;;;7.95;3.70;;;;;;;34.31;26.68;94659.47;10573853;28;20106;-74
2021/08/03 12:16:06;;;;;;;8.88;5.35;;;;;;;34.35;28.22;94662.97;10573999;28;20035;-74
2021/08/03 12:21:08;;;;;;;8.25;3.47;;;;;;;34.59;28.56;94660.09;10573402;28;20061;-74
2021/08/03 12:26:15;;;;;;;12.00;4.20;;;;;;;34.52;28.53;94657.47;10572569;28;20494;-74
2021/08/03 12:31:31;;;;;;;9.00;3.85;;;;;;;34.43;27.58;94660.84;10572095;28;20518;-74
2021/08/03 12:36:44;;;;;;;;;;;;;;;34.23;27.08;94658.00;10572977;28;20053;-74
2021/08/03 12:42:19;;;;;;;8.02;3.80;;;;;;;33.79;26.97;94657.28;10572731;28;19939;-74
2021/08/03 12:47:23;;;;;;;11.00;4.95;;;;;;;33.69;28.09;94659.81;10572768;28;20039;-74
2021/08/03 12:52:24;;;;;;;10.70;3.90;;;;;;;33.66;30.05;94657.06;10572133;28;20067;-74
2021/08/03 12:58:01;;;;;;;11.02;4.65;;;;;;;33.71;29.26;94635.09;10572095;28;20107;-74
2021/08/03 13:03:04;;;;;;;9.60;3.85;;;;;;;33.75;31.36;94635.00;10571681;28;20039;-74
2021/08/03 13:08:06;;;;;;;4.60;3.30;;;;;;;33.85;29.56;94638.84;10571924;28;20027;-74
2021/08/03 13:13:06;;;;;;;8.35;3.90;;;;;;;33.80;28.87;94640.13;10571480;28;20173;-74
2021/08/03 13:18:07;;;;;;;7.28;3.90;;;;;;;33.82;29.91;94646.06;10571576;28;20084;-74
2021/08/03 13:23:07;;;;;;;9.47;4.13;;;;;;;33.70;29.69;94624.34;10571248;28;20807;-74
2021/08/03 13:28:08;;;;;;;8.25;4.10;;;;;;;33.49;29.63;94628.31;10570942;28;20036;-74
2021/08/03 13:33:08;;;;;;;14.17;3.70;;;;;;;33.34;29.29;94625.00;10571329;28;20084;-74
2021/08/03 13:38:08;;;;;;;8.07;4.38;;;;;;;33.12;30.66;94621.75;10570885;28;20027;-73
2021/08/03 13:43:09;;;;;;;12.67;3.93;;;;;;;33.09;30.29;94617.81;10577317;28;20459;-73
2021/08/03 13:48:09;;;;;;;11.90;3.70;;;;;;;32.94;31.84;94622.81;10579616;28;20027;-73
2021/08/03 13:53:10;;;;;;;7.55;4.18;;;;;;;32.78;31.78;94615.13;10579057;28;20403;-73
2021/08/03 13:58:10;;;;;;;10.03;4.07;;;;;;;32.54;31.91;94631.72;10579125;28;20038;-73
2021/08/03 14:03:10;;;;;;;6.43;4.00;;;;;;;32.45;33.21;94625.88;10560871;28;20019;-73
2021/08/03 14:08:11;;;;;;;8.97;4.43;;;;;;;32.46;33.73;94644.16;10578916;28;20039;-73
2021/08/03 14:13:11;;;;;;;7.53;4.47;;;;;;;32.60;33.43;94637.63;10578528;28;20537;-73
2021/08/03 14:18:11;;;;;;;9.53;4.27;;;;;;;32.70;33.55;94660.97;10578483;28;20102;-73
2021/08/03 14:23:12;;;;;;;9.97;3.73;;;;;;;32.79;34.47;94664.00;10578414;28;20020;-73
2021/08/03 14:28:12;;;;;;;6.97;3.63;;;;;;;32.79;32.39;94661.22;10577728;28;20016;-73
2021/08/03 14:33:13;;;;;;;8.00;4.18;;;;;;;32.80;33.97;94651.66;10577447;28;20028;-73
2021/08/03 14:38:13;;;;;;;7.63;3.70;;;;;;;32.74;33.46;94658.91;10577643;28;20102;-73
2021/08/03 14:43:17;;;;;;;6.23;3.70;;;;;;;32.73;32.76;94662.13;10577225;28;20023;-73
2021/08/03 14:48:17;;;;;;;21.38;5.30;;;;;;;32.88;34.11;94663.50;10577682;28;20032;-73
2021/08/03 14:53:18;;;;;;;7.87;3.53;;;;;;;32.96;33.27;94669.72;10558081;28;20036;-74
2021/08/03 14:58:18;;;;;;;5.40;3.17;;;;;;;32.60;32.17;94673.78;10576780;28;20035;-74
2021/08/03 15:03:18;;;;;;;6.33;2.77;;;;;;;32.54;31.87;94667.09;10576596;28;20055;-74
2021/08/03 15:08:19;;;;;;;5.73;2.40;;;;;;;32.23;32.13;94664.31;10576793;28;20024;-74
2021/08/03 15:13:19;;;;;;;5.53;3.78;;;;;;;31.97;32.74;94665.75;10576015;28;20083;-74
2021/08/03 15:18:19;;;;;;;4.57;2.57;;;;;;;31.73;33.11;94650.94;10575819;28;20016;-73
2021/08/03 15:23:22;;;;;;;8.50;3.73;;;;;;;31.55;32.65;94639.97;10575713;28;20265;-73
2021/08/03 15:28:22;;;;;;;13.35;4.40;;;;;;;31.56;33.83;94647.13;10575056;28;20028;-73
2021/08/03 15:33:23;;;;;;;9.90;3.43;;;;;;;31.47;32.04;94648.38;10574787;28;20026;-76
2021/08/03 15:38:24;;;;;;;8.73;3.53;;;;;;;31.33;31.64;94637.41;10574565;28;20456;-73
2021/08/03 15:43:24;;;;;;;8.55;3.40;;;;;;;30.88;31.33;94648.44;10569454;28;20073;-73
2021/08/03 15:48:27;;;;;;;12.75;3.50;;;;;;;31.02;31.94;94651.13;10573895;28;20115;-74
2021/08/03 15:53:27;;;;;;;11.13;3.65;;;;;;;30.89;31.24;94647.25;10574196;28;20031;-74
2021/08/03 15:58:28;;;;;;;12.13;4.80;;;;;;;30.91;31.36;94644.84;10573092;28;20038;-74
2021/08/03 16:03:28;;;;;;;10.33;3.77;;;;;;;31.07;31.94;94644.38;10572651;28;20490;-74
2021/08/03 16:08:28;;;;;;;6.50;3.50;;;;;;;30.96;31.80;94642.41;10555407;28;20509;-74
2021/08/03 16:13:29;;;;;;;7.67;3.30;;;;;;;30.64;32.44;94648.19;10572382;28;20030;-74
2021/08/03 16:18:49;;;;;;;7.35;3.38;;;;;;;30.17;32.33;94632.56;10572361;28;20045;-74
2021/08/03 16:23:51;;;;;;;7.40;3.85;;;;;;;29.96;33.08;94640.94;10572092;28;20573;-73
2021/08/03 16:28:58;;;;;;;8.77;3.55;;;;;;;29.70;33.71;94636.66;10523022;27;20381;-72
2021/08/03 16:34:01;;;;;;;10.52;3.75;;;;;;;29.64;34.10;94639.06;10522452;28;20442;-73
2021/08/03 16:39:03;;;;;;;11.63;3.70;;;;;;;29.55;34.44;94641.44;10521194;28;20035;-73
2021/08/03 16:44:04;;;;;;;9.98;3.60;;;;;;;29.63;34.86;94634.69;10522885;28;20107;-73
2021/08/03 16:49:05;;;;;;;12.57;4.20;;;;;;;29.58;35.16;94646.16;10522821;28;20055;-72
2021/08/03 16:54:08;;;;;;;6.73;3.77;;;;;;;29.44;34.55;94644.22;10522327;28;20036;-73
2021/08/03 16:59:16;;;;;;;12.70;4.18;;;;;;;29.36;34.85;94640.66;10522433;28;20308;-72
2021/08/03 17:04:25;;;;;;;12.27;4.20;;;;;;;29.19;34.98;94639.44;10521673;28;20107;-72
2021/08/03 17:09:50;;;;;;;6.70;3.90;;;;;;;29.00;33.13;94640.66;10521733;28;20119;-72
2021/08/03 17:14:57;;;;;;;11.18;4.78;;;;;;;28.75;34.85;94648.94;10521382;28;20024;-72
2021/08/03 17:20:03;;;;;;;8.90;3.95;;;;;;;28.61;34.24;94644.91;10521108;28;20107;-72
2021/08/03 17:25:08;;;;;;;8.98;3.72;;;;;;;28.56;36.01;94645.28;10520342;28;20044;-72
2021/08/03 17:30:09;;;;;;;10.43;4.35;;;;;;;28.34;35.55;94636.19;10521146;28;20031;-75
2021/08/03 17:35:11;;;;;;;10.98;4.22;;;;;;;28.22;36.11;94639.28;10505048;28;20020;-73
2021/08/03 17:40:13;;;;;;;14.50;4.25;;;;;;;28.06;36.41;94634.91;10466468;28;20021;-73
2021/08/03 17:45:16;;;;;;;17.30;4.75;;;;;;;27.90;36.72;94637.94;10450405;28;20025;-73
2021/08/03 17:50:18;;;;;;;50.35;15.00;;;;;;;27.75;39.42;94630.75;10450469;28;20025;-72
2021/08/03 17:55:19;;;;;;;17.33;6.32;;;;;;;27.68;38.79;94625.22;10450520;28;20027;-72
2021/08/03 18:00:20;;;;;;;17.83;5.82;;;;;;;27.62;39.65;94638.59;10450053;28;20029;-72
2021/08/03 18:05:22;;;;;;;14.70;5.15;;;;;;;27.45;40.01;94629.03;10450848;28;20025;-72
2021/08/03 18:10:22;;;;;;;12.68;5.63;;;;;;;27.37;40.81;94617.13;10449726;28;20543;-72
2021/08/03 18:15:23;;;;;;;10.85;5.45;;;;;;;27.30;41.80;94630.84;10449631;28;20013;-72
2021/08/03 18:20:23;;;;;;;10.35;4.38;;;;;;;27.07;42.06;94628.31;10449681;28;20029;-72
2021/08/03 18:25:25;;;;;;;8.52;5.28;;;;;;;26.45;43.73;94635.22;10449263;28;20056;-72
2021/08/03 18:30:26;;;;;;;9.07;4.72;;;;;;;26.25;44.80;94631.88;10449335;28;20032;-72
2021/08/03 18:35:40;;;;;;;10.65;4.07;;;;;;;26.12;44.45;94645.09;10458444;28;20028;-72
2021/08/03 18:40:43;;;;;;;6.97;4.60;;;;;;;25.85;44.39;94653.38;10490112;28;20047;-73
2021/08/03 18:45:46;;;;;;;12.10;4.85;;;;;;;25.78;44.50;94639.53;10489483;28;20722;-72
2021/08/03 18:50:49;;;;;;;8.27;3.97;;;;;;;25.76;45.02;94645.41;10488961;28;20032;-72
2021/08/03 18:55:51;;;;;;;9.63;4.22;;;;;;;25.72;44.81;94644.56;10489091;28;20020;-72
2021/08/03 19:00:54;;;;;;;7.57;4.28;;;;;;;25.72;44.87;94643.78;10489351;28;20032;-72
2021/08/03 19:06:28;;;;;;;12.13;4.55;;;;;;;25.65;45.80;94649.19;10489651;28;20028;-72
2021/08/03 19:11:28;;;;;;;8.98;3.97;;;;;;;25.59;46.22;94643.19;10488921;28;20501;-72
2021/08/03 19:16:32;;;;;;;16.93;4.50;;;;;;;25.23;47.68;94648.19;10489075;28;20028;-72
2021/08/03 19:21:36;;;;;;;7.88;4.70;;;;;;;25.16;47.38;94648.03;10488149;28;20278;-73
2021/08/03 19:26:38;;;;;;;6.88;4.13;;;;;;;25.05;48.52;94643.19;10488829;28;20049;-73
2021/08/03 19:31:41;;;;;;;8.05;4.20;;;;;;;25.00;48.22;94643.47;10456189;28;20114;-73
2021/08/03 19:36:42;;;;;;;14.60;4.32;;;;;;;25.12;47.21;94634.25;10465652;28;20108;-74
2021/08/03 19:41:42;;;;;;;9.00;4.23;;;;;;;25.15;47.68;94621.72;10488143;28;20029;-74
2021/08/03 19:46:46;;;;;;;7.60;4.07;;;;;;;25.15;47.30;94621.72;10487181;28;20031;-74
2021/08/03 19:51:51;;;;;;;8.77;3.72;;;;;;;25.11;47.25;94613.41;10487791;28;20031;-74
2021/08/03 19:56:55;;;;;;;8.52;4.22;;;;;;;25.08;46.85;94625.94;10487818;28;20077;-73
2021/08/03 20:02:00;;;;;;;9.80;3.75;;;;;;;25.05;46.24;94623.94;10468569;28;20453;-74
2021/08/03 20:07:01;;;;;;;11.13;3.88;;;;;;;25.14;45.16;94626.41;10486998;28;20025;-74
2021/08/03 20:12:02;;;;;;;6.05;3.83;;;;;;;25.18;45.80;94631.97;10453211;28;20027;-74
2021/08/03 20:17:04;;;;;;;12.25;5.10;;;;;;;25.23;45.96;94645.44;10485219;28;20023;-74
2021/08/03 20:22:04;;;;;;;11.10;5.85;;;;;;;25.13;46.96;94646.84;10484610;28;20031;-74
2021/08/03 20:27:07;;;;;;;7.88;4.03;;;;;;;24.91;48.52;94638.25;10456002;28;20048;-74
2021/08/03 20:32:07;;;;;;;9.95;4.90;;;;;;;24.91;50.47;94637.47;10470529;28;20025;-74
2021/08/03 20:37:16;;;;;;;6.15;3.53;;;;;;;24.54;50.73;94649.75;10486588;28;20016;-74
2021/08/03 20:42:17;;;;;;;15.88;6.18;;;;;;;24.49;51.08;94647.31;10486763;28;20028;-75
2021/08/03 20:47:18;;;;;;;9.00;4.13;;;;;;;24.51;51.55;94650.47;10486043;28;20034;-75
2021/08/03 20:52:20;;;;;;;6.65;4.32;;;;;;;24.39;51.05;94645.97;10485770;28;20123;-76
2021/08/03 20:57:21;;;;;;;7.97;4.22;;;;;;;24.29;53.97;94635.56;10486351;28;20128;-74
2021/08/03 21:02:32;;;;;;;7.70;4.18;;;;;;;24.21;55.09;94642.06;10486385;28;20499;-74
2021/08/03 21:07:34;;;;;;;7.45;4.20;;;;;;;24.14;58.63;94644.66;10484679;28;20020;-74
2021/08/03 21:12:35;;;;;;;11.38;4.63;;;;;;;24.21;55.65;94653.84;10488387;28;20028;-74
2021/08/03 21:17:37;;;;;;;11.20;4.27;;;;;;;24.29;56.16;94656.72;10494438;28;20024;-74
2021/08/03 21:22:38;;;;;;;11.57;4.95;;;;;;;24.33;55.47;94650.16;10493646;28;20285;-75
2021/08/03 21:27:39;;;;;;;5.70;3.60;;;;;;;24.39;52.52;94651.44;10491571;28;20047;-75
2021/08/03 21:32:39;;;;;;;5.70;4.07;;;;;;;24.33;55.07;94652.88;10491561;28;20031;-75
2021/08/03 21:37:42;;;;;;;8.40;4.33;;;;;;;24.16;57.50;94669.84;10487205;28;20021;-77
2021/08/03 21:42:43;;;;;;;11.05;4.50;;;;;;;24.09;57.90;94670.47;10450490;28;20267;-74
2021/08/03 21:47:43;;;;;;;11.40;4.63;;;;;;;24.19;59.75;94660.88;10478778;28;20020;-74
2021/08/03 21:52:43;;;;;;;14.10;5.70;;;;;;;24.08;63.14;94655.16;10490670;28;20127;-75
2021/08/03 21:57:44;;;;;;;23.57;8.83;;;;;;;24.23;62.66;94665.25;10490318;28;20052;-74
2021/08/03 22:02:44;;;;;;;7.87;4.43;;;;;;;24.10;63.18;94657.53;10489055;28;20028;-74
2021/08/03 22:07:45;;;;;;;12.68;5.22;;;;;;;24.07;64.35;94659.06;10490216;28;20344;-74
2021/08/03 22:12:45;;;;;;;9.45;4.95;;;;;;;24.06;63.31;94660.22;10490015;28;20115;-74
2021/08/03 22:17:46;;;;;;;8.50;4.97;;;;;;;23.99;65.48;94662.84;10490362;28;20078;-74
2021/08/03 22:22:46;;;;;;;9.07;5.05;;;;;;;23.95;68.06;94679.22;10489754;28;20103;-74
2021/08/03 22:27:47;;;;;;;9.90;5.03;;;;;;;24.08;68.22;94671.63;10489005;28;20601;-74
2021/08/03 22:32:47;;;;;;;13.95;6.72;;;;;;;23.99;66.72;94660.88;10489637;28;20271;-73
2021/08/03 22:37:48;;;;;;;14.65;5.55;;;;;;;23.85;67.91;94658.59;10487879;28;20035;-73
2021/08/03 22:42:48;;;;;;;18.15;5.85;;;;;;;23.89;67.37;94653.22;10488571;28;20028;-74
2021/08/03 22:47:48;;;;;;;21.73;6.43;;;;;;;23.80;69.25;94650.63;10487524;28;20060;-73
2021/08/03 22:52:49;;;;;;;9.47;5.87;;;;;;;23.82;66.57;94664.81;10486698;28;20089;-73
2021/08/03 22:57:49;;;;;;;8.90;5.27;;;;;;;23.80;65.65;94660.84;10487272;28;20277;-73
2021/08/03 23:02:50;;;;;;;12.57;5.70;;;;;;;23.63;66.49;94660.09;10486655;28;20270;-74
2021/08/03 23:07:50;;;;;;;12.20;5.43;;;;;;;23.52;68.49;94653.56;10487962;28;20111;-74
2021/08/03 23:12:51;;;;;;;14.57;5.05;;;;;;;23.56;70.86;94668.16;10487504;28;20101;-74
2021/08/03 23:17:51;;;;;;;10.13;5.37;;;;;;;23.52;71.97;94673.56;10487509;28;20099;-74